Time;durP1;ratioP1;P1;durP2;ratioP2;P2;SDS_P1;SDS_P2;PMS_P1;PMS_P2;Temp;Humidity;BMP_temperature;BMP_pressure;BME280_temperature;BME280_humidity;BME280_pressure;Samples;Min_cycle;Max_cycle;Signal;HPM_P1;HPM_P2
2022/02/14 00:02:11;;;;;;;43.17;28.95;;;102.50;2227.20;;;;;;4972586;28;20537;-58
2022/02/14 00:04:37;;;;;;;38.17;25.73;;;102.50;2227.20;;;;;;4976376;28;20027;-58
2022/02/14 00:07:02;;;;;;;43.97;28.55;;;102.40;2227.20;;;;;;4981979;28;20050;-59
2022/02/14 00:09:28;;;;;;;45.63;32.10;;;102.40;2227.20;;;;;;4975548;28;20041;-60
2022/02/14 00:11:54;;;;;;;79.35;45.60;;;77.70;2227.20;;;;;;4973561;28;20524;-59
2022/02/14 00:14:23;;;;;;;85.35;52.67;;;77.50;2227.20;;;;;;4980932;28;20053;-59
2022/02/14 00:16:49;;;;;;;80.95;46.90;;;77.60;2227.20;;;;;;4970228;28;20524;-61
2022/02/14 00:19:15;;;;;;;67.45;40.85;;;77.70;2227.20;;;;;;4977386;28;20162;-59
2022/02/14 00:21:41;;;;;;;61.80;36.72;;;77.30;2227.20;;;;;;4983477;28;20027;-59
2022/02/14 00:24:09;;;;;;;50.03;32.08;;;77.20;2227.20;;;;;;4972276;28;20031;-59
2022/02/14 00:26:36;;;;;;;57.97;36.85;;;77.30;2227.20;;;;;;4980939;28;20559;-59
2022/02/14 00:29:02;;;;;;;59.55;36.28;;;77.40;2227.20;;;;;;4983611;28;20035;-58
2022/02/14 00:31:28;;;;;;;46.13;28.90;;;77.60;2227.20;;;;;;4978827;28;20366;-59
2022/02/14 00:33:53;;;;;;;48.08;31.95;;;77.70;2227.20;;;;;;4982054;28;20033;-60
2022/02/14 00:36:19;;;;;;;64.95;37.80;;;77.60;2227.20;;;;;;4983362;28;20073;-60
2022/02/14 00:38:45;;;;;;;74.60;40.90;;;77.70;2227.20;;;;;;4977766;28;20074;-61
2022/02/14 00:41:11;;;;;;;59.50;32.63;;;77.70;2227.20;;;;;;4980943;28;20180;-60
2022/02/14 00:43:37;;;;;;;57.17;34.30;;;102.40;2227.20;;;;;;4981765;28;20045;-59
2022/02/14 00:46:03;;;;;;;59.42;33.00;;;102.40;2227.20;;;;;;4981601;28;20653;-59
2022/02/14 00:48:28;;;;;;;39.80;26.33;;;102.40;2227.20;;;;;;4958886;28;20086;-61
2022/02/14 00:50:54;;;;;;;36.20;25.23;;;102.40;2227.20;;;;;;4971811;28;20039;-62
2022/02/14 00:53:20;;;;;;;32.25;21.85;;;102.40;2227.20;;;;;;4975426;28;20033;-61
2022/02/14 00:55:46;;;;;;;33.35;21.30;;;77.70;2227.20;;;;;;4954911;28;20043;-61
2022/02/14 00:58:14;;;;;;;31.30;20.75;;;77.70;2227.20;;;;;;4972696;28;20093;-60
2022/02/14 01:00:40;;;;;;;47.50;26.17;;;77.50;2227.20;;;;;;4972416;28;20519;-61
2022/02/14 01:03:06;;;;;;;88.22;45.85;;;77.40;2227.20;;;;;;4972072;28;20046;-61
2022/02/14 01:05:32;;;;;;;37.03;23.98;;;77.40;2227.20;;;;;;4972565;28;20043;-60
2022/02/14 01:07:58;;;;;;;36.67;23.90;;;77.40;2227.20;;;;;;4972341;28;20089;-59
2022/02/14 01:10:24;;;;;;;36.13;23.58;;;77.30;2227.20;;;;;;4971081;28;20030;-60
2022/02/14 01:12:50;;;;;;;32.50;23.23;;;77.40;2227.20;;;;;;4972307;28;20032;-60
2022/02/14 01:15:16;;;;;;;32.10;22.00;;;77.40;2227.20;;;;;;4972206;28;20031;-58
2022/02/14 01:17:41;;;;;;;33.38;23.52;;;77.30;2227.20;;;;;;4972238;28;20389;-60
2022/02/14 01:20:10;;;;;;;32.20;22.63;;;77.30;2227.20;;;;;;4971984;28;20496;-60
2022/02/14 01:22:36;;;;;;;44.08;23.10;;;77.20;2227.20;;;;;;4971998;28;20077;-60
2022/02/14 01:25:03;;;;;;;35.38;21.30;;;77.20;2227.20;;;;;;4971903;28;20464;-59
2022/02/14 01:27:29;;;;;;;96.65;50.03;;;77.10;2227.20;;;;;;4971901;28;20418;-59
2022/02/14 01:29:56;;;;;;;42.45;26.92;;;77.00;2227.20;;;;;;4971459;28;20042;-60
2022/02/14 01:32:23;;;;;;;33.25;22.90;;;77.20;2227.20;;;;;;4971785;28;20081;-59
2022/02/14 01:34:53;;;;;;;39.10;25.85;;;77.10;2227.20;;;;;;4971807;28;20055;-59
2022/02/14 01:37:20;;;;;;;36.05;23.10;;;76.90;2227.20;;;;;;4971828;28;20026;-60
2022/02/14 01:39:46;;;;;;;34.53;24.17;;;76.90;2227.20;;;;;;4971430;28;20089;-60
2022/02/14 01:42:12;;;;;;;45.05;26.20;;;76.90;2227.20;;;;;;4971666;28;20034;-59
2022/02/14 01:44:43;;;;;;;36.42;25.00;;;76.90;2227.20;;;;;;4971975;28;20049;-60
2022/02/14 01:47:12;;;;;;;40.85;24.15;;;76.90;2227.20;;;;;;4971601;28;20039;-59
2022/02/14 01:49:40;;;;;;;42.25;25.33;;;76.90;2227.20;;;;;;4971541;28;20029;-60
2022/02/14 01:52:06;;;;;;;31.45;21.02;;;51.90;2227.20;;;;;;4971432;28;20038;-60
2022/02/14 01:54:37;;;;;;;34.05;21.27;;;51.70;2227.20;;;;;;4971343;28;20077;-59
2022/02/14 01:57:06;;;;;;;32.25;20.95;;;51.70;2227.20;;;;;;4971711;28;20098;-60
2022/02/14 01:59:33;;;;;;;42.65;23.10;;;51.70;2227.20;;;;;;4971333;28;20042;-60
2022/02/14 02:02:00;;;;;;;35.40;21.88;;;51.90;2227.20;;;;;;4971329;28;20062;-60
2022/02/14 02:04:26;;;;;;;33.60;22.85;;;76.90;2227.20;;;;;;4971369;28;20037;-59
2022/02/14 02:06:53;;;;;;;44.10;24.83;;;76.90;2227.20;;;;;;4971318;28;20486;-59
2022/02/14 02:09:19;;;;;;;35.83;23.55;;;76.80;2227.20;;;;;;4971268;28;20417;-59
2022/02/14 02:14:29;;;;;;;31.02;21.02;;;77.00;2227.20;;;;;;4971329;28;20061;-59
2022/02/14 02:16:55;;;;;;;28.88;18.52;;;77.10;2227.20;;;;;;4970972;28;20106;-59
2022/02/14 02:19:21;;;;;;;34.42;22.15;;;77.00;2227.20;;;;;;4971091;28;20034;-59
2022/02/14 02:21:49;;;;;;;32.35;22.50;;;77.00;2227.20;;;;;;4971938;28;20030;-60
2022/02/14 02:24:19;;;;;;;39.67;21.92;;;77.00;2227.20;;;;;;4975063;28;20469;-59
2022/02/14 02:26:58;;;;;;;29.98;19.48;;;77.00;2227.20;;;;;;4975136;28;20470;-60
2022/02/14 02:29:25;;;;;;;34.30;21.77;;;77.10;2227.20;;;;;;4974983;28;20077;-59
2022/02/14 02:31:51;;;;;;;31.15;20.40;;;77.10;2227.20;;;;;;4975065;28;20041;-60
2022/02/14 02:34:17;;;;;;;31.08;20.92;;;77.00;2227.20;;;;;;4974970;28;20089;-59
2022/02/14 02:36:54;;;;;;;34.13;20.45;;;77.00;2227.20;;;;;;4973519;28;20054;-60
2022/02/14 02:39:20;;;;;;;29.88;20.70;;;77.00;2227.20;;;;;;4975123;28;20022;-60
2022/02/14 02:41:46;;;;;;;33.38;20.40;;;76.90;2227.20;;;;;;4974853;28;20050;-58
2022/02/14 02:44:12;;;;;;;32.33;20.27;;;77.00;2227.20;;;;;;4975078;28;20026;-59
2022/02/14 02:46:39;;;;;;;33.10;20.52;;;77.10;2227.20;;;;;;4974722;28;20042;-59
2022/02/14 02:49:23;;;;;;;31.92;21.33;;;76.80;2227.20;;;;;;4974511;28;20046;-59
2022/02/14 02:51:51;;;;;;;31.55;20.63;;;76.80;2227.20;;;;;;4974956;28;20023;-59
2022/02/14 02:54:19;;;;;;;35.90;23.30;;;52.10;2227.20;;;;;;4974697;28;20030;-59
2022/02/14 02:56:48;;;;;;;35.13;24.52;;;52.00;2227.20;;;;;;4974574;28;20023;-61
2022/02/14 02:59:14;;;;;;;24.90;18.42;;;52.10;2227.20;;;;;;4974549;28;20041;-59
2022/02/14 03:01:41;;;;;;;26.98;18.45;;;76.80;2227.20;;;;;;4974650;28;20405;-59
2022/02/14 03:04:08;;;;;;;25.20;16.88;;;76.80;2227.20;;;;;;4974818;28;20110;-60
2022/02/14 03:06:34;;;;;;;29.95;17.35;;;52.10;2227.20;;;;;;4976830;28;20046;-60
2022/02/14 03:09:00;;;;;;;34.13;20.15;;;52.00;2227.20;;;;;;4976941;28;20520;-59
2022/02/14 03:11:27;;;;;;;31.13;21.55;;;52.10;2227.20;;;;;;4976665;28;20049;-60
2022/02/14 03:13:54;;;;;;;34.33;22.85;;;52.00;2227.20;;;;;;4976524;28;20062;-63
2022/02/14 03:16:20;;;;;;;27.38;19.50;;;52.10;2227.20;;;;;;4976606;28;20086;-59
2022/02/14 03:18:46;;;;;;;35.85;24.92;;;52.10;2227.20;;;;;;4976135;28;20037;-59
2022/02/14 03:21:13;;;;;;;41.03;25.02;;;51.80;2227.20;;;;;;4976706;28;20114;-59
2022/02/14 03:23:39;;;;;;;36.90;22.70;;;51.80;2227.20;;;;;;4976765;28;20034;-60
2022/02/14 03:26:05;;;;;;;34.33;20.60;;;52.00;2227.20;;;;;;4976839;28;20118;-65
2022/02/14 03:28:31;;;;;;;30.33;19.17;;;52.00;2227.20;;;;;;4974771;28;20441;-59
2022/02/14 03:30:58;;;;;;;35.17;19.88;;;52.00;2227.20;;;;;;4973935;28;20035;-58
2022/02/14 03:33:25;;;;;;;32.80;19.73;;;51.80;2227.20;;;;;;4972715;28;20039;-61
2022/02/14 03:35:51;;;;;;;27.05;19.08;;;51.90;2227.20;;;;;;4974131;28;20027;-61
2022/02/14 03:38:17;;;;;;;38.28;23.90;;;52.00;2227.20;;;;;;4973850;28;20031;-60
2022/02/14 03:40:44;;;;;;;33.90;25.25;;;52.00;2227.20;;;;;;4973852;28;20031;-59
2022/02/14 03:43:12;;;;;;;29.45;20.35;;;52.00;2227.20;;;;;;4974159;28;20035;-59
2022/02/14 03:45:40;;;;;;;41.08;22.10;;;52.00;2227.20;;;;;;4973895;28;20385;-60
2022/02/14 03:48:07;;;;;;;31.88;21.13;;;52.00;2227.20;;;;;;4973580;28;20063;-62
2022/02/14 03:50:33;;;;;;;28.52;17.08;;;52.10;2227.20;;;;;;4973650;28;20782;-60
2022/02/14 03:52:59;;;;;;;33.42;18.30;;;52.00;2227.20;;;;;;4973649;28;20031;-59
2022/02/14 03:55:25;;;;;;;28.20;18.98;;;51.80;2227.20;;;;;;4973514;28;20037;-59
2022/02/14 03:57:51;;;;;;;27.15;18.30;;;51.80;2227.20;;;;;;4973686;28;20034;-59
2022/02/14 04:00:19;;;;;;;29.35;18.40;;;51.80;2227.20;;;;;;4973142;28;20493;-61
2022/02/14 04:02:45;;;;;;;35.42;19.48;;;51.90;2227.20;;;;;;4973137;28;20366;-60
2022/02/14 04:05:13;;;;;;;36.05;20.83;;;51.90;2227.20;;;;;;4973745;28;20045;-59
2022/02/14 04:07:39;;;;;;;39.17;22.33;;;51.90;2227.20;;;;;;4973542;28;20030;-61
2022/02/14 04:10:07;;;;;;;62.10;40.97;;;51.90;2227.20;;;;;;4973243;28;20023;-60
2022/02/14 04:12:33;;;;;;;55.17;33.50;;;51.90;2227.20;;;;;;4973280;28;20034;-61
2022/02/14 04:14:59;;;;;;;70.10;42.47;;;51.90;2227.20;;;;;;4973335;28;20034;-60
2022/02/14 04:17:25;;;;;;;45.55;27.02;;;51.90;2227.20;;;;;;4973025;28;20026;-60
2022/02/14 04:19:52;;;;;;;41.30;24.73;;;51.90;2227.20;;;;;;4973181;28;20031;-60
2022/02/14 04:22:18;;;;;;;38.58;21.58;;;51.90;2227.20;;;;;;4973104;28;20038;-62
2022/02/14 04:24:43;;;;;;;27.60;17.88;;;51.80;2227.20;;;;;;4972960;28;20027;-59
2022/02/14 04:27:09;;;;;;;35.70;22.67;;;51.70;2227.20;;;;;;4973139;28;20069;-59
2022/02/14 04:29:35;;;;;;;30.98;20.55;;;51.70;2227.20;;;;;;4972784;28;20058;-60
2022/02/14 04:32:01;;;;;;;26.35;16.90;;;51.80;2227.20;;;;;;4972885;28;20428;-59
2022/02/14 04:34:26;;;;;;;28.48;19.65;;;51.70;2227.20;;;;;;4972678;28;20019;-60
2022/02/14 04:36:52;;;;;;;33.38;21.25;;;51.70;2227.20;;;;;;4972924;28;20015;-59
2022/02/14 04:39:19;;;;;;;30.02;21.40;;;51.70;2227.20;;;;;;4972825;28;20485;-59
2022/02/14 04:41:45;;;;;;;44.50;25.17;;;51.70;2227.20;;;;;;4972555;28;20042;-59
2022/02/14 04:44:11;;;;;;;33.92;20.98;;;51.60;2227.20;;;;;;4972793;28;20031;-59
2022/02/14 04:46:38;;;;;;;35.53;22.85;;;51.70;2227.20;;;;;;4972410;28;20042;-59
2022/02/14 04:49:06;;;;;;;40.42;24.88;;;51.70;2227.20;;;;;;4972392;28;20158;-59
2022/02/14 04:51:33;;;;;;;34.70;21.90;;;51.70;2227.20;;;;;;4972564;28;20034;-58
2022/02/14 04:54:01;;;;;;;42.50;24.70;;;51.70;2227.20;;;;;;4972512;28;20031;-58
2022/02/14 04:56:28;;;;;;;40.42;26.98;;;51.70;2227.20;;;;;;4972269;28;20461;-59
2022/02/14 04:58:54;;;;;;;46.58;27.58;;;51.60;2227.20;;;;;;4972244;28;20033;-59
2022/02/14 05:01:20;;;;;;;39.63;24.70;;;51.70;2227.20;;;;;;4972303;28;20535;-59
2022/02/14 05:03:46;;;;;;;38.83;25.88;;;51.60;2227.20;;;;;;4971992;28;20033;-59
2022/02/14 05:06:12;;;;;;;34.42;21.52;;;51.40;2227.20;;;;;;4972307;28;20039;-60
2022/02/14 05:08:39;;;;;;;35.38;22.55;;;51.40;2227.20;;;;;;4972338;28;20110;-59
2022/02/14 05:11:05;;;;;;;35.35;23.92;;;51.30;2227.20;;;;;;4972190;28;20027;-59
2022/02/14 05:13:31;;;;;;;46.03;33.13;;;51.30;2227.20;;;;;;4972249;28;20049;-57
2022/02/14 05:15:56;;;;;;;49.70;42.03;;;51.30;2227.20;;;;;;4971872;28;20027;-58
2022/02/14 05:18:22;;;;;;;44.80;32.35;;;51.40;2227.20;;;;;;4971970;28;20109;-61
2022/02/14 05:20:48;;;;;;;40.78;29.88;;;51.30;2227.20;;;;;;4972278;28;20034;-60
2022/02/14 05:23:14;;;;;;;45.75;34.42;;;51.40;2227.20;;;;;;4971821;28;20037;-60
2022/02/14 05:25:40;;;;;;;54.53;32.38;;;51.40;2227.20;;;;;;4972190;28;20151;-59
2022/02/14 05:28:06;;;;;;;47.65;31.30;;;51.40;2227.20;;;;;;4971709;28;20085;-60
2022/02/14 05:30:33;;;;;;;50.55;32.25;;;51.50;2227.20;;;;;;4971725;28;20141;-60
2022/02/14 05:32:59;;;;;;;53.53;30.30;;;51.50;2227.20;;;;;;4971648;28;20036;-60
2022/02/14 05:35:25;;;;;;;42.05;29.75;;;51.40;2227.20;;;;;;4971967;28;20031;-60
2022/02/14 05:37:52;;;;;;;29.80;19.02;;;51.30;2227.20;;;;;;4971845;28;20461;-60
2022/02/14 05:40:18;;;;;;;28.40;18.95;;;51.40;2227.20;;;;;;4971553;28;20029;-59
2022/02/14 05:42:44;;;;;;;33.35;20.55;;;51.30;2227.20;;;;;;4971520;28;20105;-60
2022/02/14 05:45:10;;;;;;;28.80;19.80;;;51.40;2227.20;;;;;;4971798;28;20027;-59
2022/02/14 05:47:36;;;;;;;30.70;19.92;;;51.30;2227.20;;;;;;4971314;28;20488;-61
2022/02/14 05:50:02;;;;;;;29.90;19.10;;;51.30;2227.20;;;;;;4971607;28;20031;-59
2022/02/14 05:52:28;;;;;;;27.70;18.20;;;51.30;2227.20;;;;;;4971245;28;20035;-60
2022/02/14 05:54:53;;;;;;;29.83;18.55;;;51.30;2227.20;;;;;;4971277;28;20027;-62
2022/02/14 05:57:20;;;;;;;34.20;19.38;;;51.50;2227.20;;;;;;4971015;28;20102;-61
2022/02/14 05:59:46;;;;;;;29.02;20.00;;;51.50;2227.20;;;;;;4970892;28;20505;-61
2022/02/14 06:02:11;;;;;;;33.00;22.65;;;51.80;2227.20;;;;;;4969809;28;20097;-62
2022/02/14 06:04:37;;;;;;;40.55;23.98;;;52.10;2227.20;;;;;;4971328;28;20030;-61
2022/02/14 06:07:03;;;;;;;39.78;23.77;;;76.90;2227.20;;;;;;4971402;28;20385;-62
2022/02/14 06:09:29;;;;;;;53.42;35.83;;;77.10;2227.20;;;;;;4971446;28;20366;-63
2022/02/14 06:11:57;;;;;;;56.65;36.45;;;77.20;2227.20;;;;;;4971054;28;20073;-60
2022/02/14 06:14:23;;;;;;;169.60;107.95;;;77.40;2227.20;;;;;;4970289;28;20066;-60
2022/02/14 06:16:50;;;;;;;79.72;48.50;;;77.50;2227.20;;;;;;4971243;28;20027;-60
2022/02/14 06:19:15;;;;;;;63.42;38.55;;;77.60;2227.20;;;;;;4970892;28;20232;-59
2022/02/14 06:21:41;;;;;;;53.63;34.60;;;77.70;2227.20;;;;;;4971458;28;20030;-59
2022/02/14 06:24:07;;;;;;;43.47;27.48;;;102.40;2227.20;;;;;;4971255;28;20031;-59
2022/02/14 06:26:32;;;;;;;39.60;24.33;;;102.50;2227.20;;;;;;4971142;28;20038;-60
2022/02/14 06:28:59;;;;;;;79.60;48.75;;;77.60;2227.20;;;;;;4971246;28;20027;-59
2022/02/14 06:31:26;;;;;;;72.05;50.17;;;77.70;2227.20;;;;;;4971167;28;20055;-60
2022/02/14 06:33:53;;;;;;;42.03;26.90;;;102.60;2227.20;;;;;;4971086;28;20027;-60
2022/02/14 06:36:19;;;;;;;52.80;30.75;;;102.70;2227.20;;;;;;4971395;28;20030;-59
2022/02/14 06:38:45;;;;;;;41.03;26.95;;;102.90;2227.20;;;;;;4970945;28;20528;-61
2022/02/14 06:41:11;;;;;;;37.55;22.98;;;103.10;2227.20;;;;;;4971363;28;20027;-59
2022/02/14 06:43:37;;;;;;;298.60;182.85;;;103.20;2227.20;;;;;;4970892;28;20034;-59
2022/02/14 06:46:04;;;;;;;276.88;180.50;;;103.00;2227.20;;;;;;4970731;28;20039;-59
2022/02/14 06:48:30;;;;;;;326.52;215.57;;;102.80;2227.20;;;;;;4970819;28;20082;-59
2022/02/14 06:50:57;;;;;;;437.52;270.58;;;102.50;2227.20;;;;;;4970740;28;20019;-60
2022/02/14 06:53:23;;;;;;;352.70;230.18;;;102.70;2227.20;;;;;;4970891;28;20023;-60
2022/02/14 06:55:49;;;;;;;216.88;142.55;;;103.00;2227.20;;;;;;4970744;28;20073;-60
2022/02/14 06:58:15;;;;;;;217.80;142.85;;;103.30;2227.20;;;;;;4970733;28;20031;-60
2022/02/14 07:00:41;;;;;;;113.32;73.90;;;128.10;2252.80;;;;;;4953203;28;20046;-60
2022/02/14 07:03:08;;;;;;;38.75;28.48;;;128.10;2252.80;;;;;;4970673;28;20035;-61
2022/02/14 07:05:35;;;;;;;42.70;29.52;;;103.30;2227.20;;;;;;4970551;28;20049;-63
2022/02/14 07:08:01;;;;;;;51.65;34.33;;;128.10;2252.80;;;;;;4972193;28;20105;-61
2022/02/14 07:10:27;;;;;;;64.47;46.20;;;128.30;2252.80;;;;;;4974372;28;20026;-59
2022/02/14 07:12:53;;;;;;;69.47;49.25;;;128.40;2252.80;;;;;;4974263;28;20146;-61
2022/02/14 07:15:21;;;;;;;162.68;116.18;;;128.40;2252.80;;;;;;4974546;28;20039;-65
2022/02/14 07:17:48;;;;;;;232.70;156.32;;;128.00;2252.80;;;;;;4974091;28;20058;-61
2022/02/14 07:20:14;;;;;;;220.25;146.88;;;103.20;2227.20;;;;;;4974335;28;20031;-61
2022/02/14 07:22:40;;;;;;;232.35;161.82;;;103.20;2227.20;;;;;;4974636;28;20038;-60
2022/02/14 07:25:07;;;;;;;233.32;166.18;;;103.30;2227.20;;;;;;4974085;28;20035;-62
2022/02/14 07:27:37;;;;;;;170.88;117.18;;;128.10;2252.80;;;;;;4974494;28;20126;-64
2022/02/14 07:30:08;;;;;;;167.10;121.47;;;128.40;2252.80;;;;;;4974117;28;20042;-63
2022/02/14 07:32:34;;;;;;;175.40;119.43;;;128.50;2252.80;;;;;;4973748;28;20027;-62
2022/02/14 07:35:01;;;;;;;133.25;92.47;;;128.40;2252.80;;;;;;4974360;28;20038;-61
2022/02/14 07:37:27;;;;;;;81.45;54.03;;;128.60;2252.80;;;;;;4973818;28;20048;-61
2022/02/14 07:39:53;;;;;;;84.68;58.35;;;128.90;2252.80;;;;;;4974206;28;20065;-63
2022/02/14 07:42:18;;;;;;;123.38;85.45;;;153.70;2252.80;;;;;;4973953;28;20474;-63
2022/02/14 07:44:44;;;;;;;144.85;99.90;;;153.80;2252.80;;;;;;4973870;28;20058;-62
2022/02/14 07:47:10;;;;;;;121.25;87.97;;;154.00;2252.80;;;;;;4973986;28;20034;-60
2022/02/14 07:49:36;;;;;;;138.10;103.47;;;154.50;2252.80;;;;;;4973921;28;20050;-63
2022/02/14 07:52:03;;;;;;;126.50;94.85;;;230.50;2252.80;;;;;;4973483;28;20078;-62
2022/02/14 07:54:28;;;;;;;122.93;88.32;;;230.40;2252.80;;;;;;4973853;28;20106;-63
2022/02/14 07:56:54;;;;;;;94.63;70.50;;;205.60;2252.80;;;;;;4973515;28;20586;-63
2022/02/14 07:59:20;;;;;;;83.38;55.40;;;205.40;2252.80;;;;;;4973378;28;20378;-63
2022/02/14 08:01:45;;;;;;;53.78;36.28;;;205.30;2252.80;;;;;;4973603;28;20504;-61
2022/02/14 08:04:12;;;;;;;51.13;36.03;;;205.30;2252.80;;;;;;4973824;28;20023;-63
2022/02/14 08:06:38;;;;;;;48.85;34.15;;;205.50;2252.80;;;;;;4973326;28;20046;-63
2022/02/14 08:09:07;;;;;;;41.75;30.27;;;205.70;2252.80;;;;;;4973432;28;20023;-62
2022/02/14 08:11:34;;;;;;;100.35;63.58;;;230.60;2252.80;;;;;;4973603;28;20042;-64
2022/02/14 08:14:00;;;;;;;93.57;66.63;;;230.80;2252.80;;;;;;4973317;28;20158;-66
2022/02/14 08:16:26;;;;;;;251.38;186.50;;;230.80;2252.80;;;;;;4973120;28;20026;-68
2022/02/14 08:18:52;;;;;;;271.38;201.73;;;230.50;2252.80;;;;;;4973009;28;20027;-63
2022/02/14 08:21:18;;;;;;;293.15;211.32;;;205.60;2252.80;;;;;;4972825;28;20023;-66
2022/02/14 08:23:43;;;;;;;272.67;200.20;;;230.50;2252.80;;;;;;4973333;28;20046;-63
2022/02/14 08:26:10;;;;;;;215.40;152.48;;;230.70;2252.80;;;;;;4973331;28;20121;-63
2022/02/14 08:28:38;;;;;;;179.55;125.03;;;230.70;2252.80;;;;;;4973060;28;20042;-66
2022/02/14 08:31:04;;;;;;;277.48;200.77;;;230.70;2252.80;;;;;;4973109;28;20468;-64
2022/02/14 08:33:31;;;;;;;238.95;178.98;;;231.30;2252.80;;;;;;4972990;28;20086;-66
2022/02/14 08:35:57;;;;;;;247.00;182.95;;;256.60;2201.60;;;;;;4972828;28;20117;-65
2022/02/14 08:38:22;;;;;;;181.25;131.00;;;281.60;2176.00;;;;;;4972949;28;20520;-68
2022/02/14 08:40:49;;;;;;;153.15;112.50;;;281.80;2099.20;;;;;;4973042;28;20027;-61
2022/02/14 08:43:14;;;;;;;177.50;132.60;;;281.80;2073.60;;;;;;4972779;28;20034;-62
2022/02/14 08:45:40;;;;;;;106.65;79.40;;;281.70;2201.60;;;;;;4972827;28;20377;-66
2022/02/14 08:48:06;;;;;;;97.88;75.28;;;256.70;2201.60;;;;;;4972435;28;20027;-61
2022/02/14 08:50:32;;;;;;;113.60;83.15;;;256.60;2252.80;;;;;;4972631;28;20086;-60
2022/02/14 08:53:03;;;;;;;103.32;77.65;;;256.80;2227.20;;;;;;4972798;28;20031;-60
2022/02/14 08:55:29;;;;;;;113.13;76.82;;;256.80;2176.00;;;;;;4972667;28;20031;-63
2022/02/14 08:57:55;;;;;;;156.18;113.43;;;256.90;2150.40;;;;;;4972390;28;20027;-61
2022/02/14 09:00:21;;;;;;;86.97;59.25;;;256.80;2124.80;;;;;;4972491;28;20054;-61
2022/02/14 09:02:47;;;;;;;100.50;67.88;;;256.90;2124.80;;;;;;4972302;28;20039;-63
2022/02/14 09:05:14;;;;;;;113.68;81.18;;;256.70;2150.40;;;;;;4972166;28;20049;-61
2022/02/14 09:07:41;;;;;;;101.82;77.05;;;256.80;2150.40;;;;;;4972641;28;20512;-61
2022/02/14 09:10:07;;;;;;;103.53;75.22;;;333.30;1996.80;;;;;;4972335;28;20059;-61
2022/02/14 09:12:33;;;;;;;106.30;93.20;;;359.10;1792.00;;;;;;4972378;28;20026;-61
2022/02/14 09:14:59;;;;;;;131.82;111.40;;;333.70;1817.60;;;;;;4972372;28;20078;-60
2022/02/14 09:17:26;;;;;;;146.10;116.68;;;333.50;1843.20;;;;;;4972106;28;20057;-61
2022/02/14 09:19:52;;;;;;;134.30;110.35;;;358.60;1843.20;;;;;;4972155;28;20034;-63
2022/02/14 09:22:19;;;;;;;179.13;145.93;;;359.00;1792.00;;;;;;4972223;28;20082;-59
2022/02/14 09:24:45;;;;;;;177.10;147.07;;;384.10;1740.80;;;;;;4971840;28;20062;-61
2022/02/14 09:27:11;;;;;;;181.50;145.93;;;384.70;1689.60;;;;;;4971920;28;20081;-64
2022/02/14 09:29:37;;;;;;;180.60;146.85;;;359.10;1740.80;;;;;;4971951;28;20050;-62
2022/02/14 09:32:04;;;;;;;201.15;157.88;;;384.30;1689.60;;;;;;4971157;28;20037;-64
2022/02/14 09:34:30;;;;;;;199.13;162.93;;;384.30;1689.60;;;;;;4971844;28;20466;-61
2022/02/14 09:36:56;;;;;;;194.77;165.75;;;359.30;1689.60;;;;;;4972072;28;20089;-63
2022/02/14 09:39:24;;;;;;;207.85;174.52;;;358.70;1715.20;;;;;;4971834;28;20118;-62
2022/02/14 09:41:50;;;;;;;211.02;178.90;;;333.70;1740.80;;;;;;4971746;28;20034;-62
2022/02/14 09:44:16;;;;;;;202.95;160.60;;;358.40;1766.40;;;;;;4971674;28;20027;-62
2022/02/14 09:46:44;;;;;;;171.02;131.55;;;358.60;1740.80;;;;;;4971613;28;20041;-60
2022/02/14 09:49:12;;;;;;;175.88;134.07;;;333.70;1766.40;;;;;;4971714;28;20034;-61
2022/02/14 09:51:38;;;;;;;191.07;139.85;;;333.10;1817.60;;;;;;4971760;28;20109;-66
2022/02/14 09:54:06;;;;;;;181.48;138.10;;;308.10;1868.80;;;;;;4971465;28;20402;-63
2022/02/14 09:56:35;;;;;;;174.40;133.38;;;308.00;2252.80;;;;;;4971820;28;20038;-61
2022/02/14 09:59:01;;;;;;;185.55;141.85;;;307.60;1894.40;;;;;;4971499;28;20466;-62
2022/02/14 10:01:28;;;;;;;206.00;144.10;;;307.30;1971.20;;;;;;4971085;28;20130;-64
2022/02/14 10:03:56;;;;;;;176.93;131.15;;;308.00;1920.00;;;;;;4971095;28;20086;-63
2022/02/14 10:06:29;;;;;;;178.93;130.77;;;307.60;1920.00;;;;;;4971551;28;20030;-67
2022/02/14 10:09:36;;;;;;;178.55;131.50;;;307.80;1920.00;;;;;;4971322;28;20030;-65
2022/02/14 10:12:11;;;;;;;182.30;130.90;;;307.90;1920.00;;;;;;4893187;29;20060;-64
2022/02/14 10:14:38;;;;;;;173.23;130.23;;;307.80;1920.00;;;;;;4893058;29;20043;-62
2022/02/14 10:17:18;;;;;;;177.88;131.32;;;332.80;1894.40;;;;;;4893034;29;20028;-64
2022/02/14 10:20:00;;;;;;;156.52;110.03;;;307.90;1894.40;;;;;;4892942;29;20035;-61
2022/02/14 10:22:27;;;;;;;150.00;110.15;;;332.80;1920.00;;;;;;4892835;29;20048;-65
2022/02/14 10:24:53;;;;;;;116.75;88.95;;;308.10;1894.40;;;;;;4893033;29;20051;-65
2022/02/14 10:27:33;;;;;;;105.43;76.28;;;307.80;1894.40;;;;;;4893118;29;20495;-61
2022/02/14 10:30:10;;;;;;;112.40;78.13;;;307.90;1894.40;;;;;;4892922;29;20029;-61
2022/02/14 10:32:50;;;;;;;108.47;80.55;;;307.60;1920.00;;;;;;4892808;29;20040;-63
2022/02/14 10:35:16;;;;;;;118.10;82.68;;;308.00;1894.40;;;;;;4892576;29;20059;-64
2022/02/14 10:37:44;;;;;;;129.20;85.53;;;308.10;1868.80;;;;;;4893073;29;20037;-62
2022/02/14 10:40:25;;;;;;;122.35;85.65;;;307.90;1894.40;;;;;;4893146;29;20480;-64
2022/02/14 10:42:51;;;;;;;140.07;95.07;;;307.80;1894.40;;;;;;4893733;29;20094;-62
2022/02/14 10:45:20;;;;;;;114.10;79.13;;;308.00;1894.40;;;;;;4896254;29;20029;-61
2022/02/14 10:47:46;;;;;;;118.47;84.13;;;308.10;1868.80;;;;;;4938032;28;20042;-63
2022/02/14 10:50:15;;;;;;;125.07;92.03;;;307.90;1920.00;;;;;;4974992;28;20081;-63
2022/02/14 10:52:45;;;;;;;139.60;101.22;;;307.70;1945.60;;;;;;4975332;28;20113;-64
2022/02/14 10:55:12;;;;;;;114.97;82.38;;;307.90;1945.60;;;;;;4974949;28;20034;-66
2022/02/14 10:57:40;;;;;;;113.22;82.45;;;307.90;1920.00;;;;;;4974715;28;20547;-62
2022/02/14 11:00:11;;;;;;;118.22;87.68;;;307.90;1920.00;;;;;;4974358;28;20055;-62
2022/02/14 11:02:39;;;;;;;125.28;81.68;;;332.80;1945.60;;;;;;4974503;28;20109;-61
2022/02/14 11:05:06;;;;;;;103.05;73.13;;;308.10;1894.40;;;;;;4974458;28;20026;-61
2022/02/14 11:07:33;;;;;;;121.22;74.88;;;333.00;1894.40;;;;;;4974784;28;20150;-61
2022/02/14 11:10:00;;;;;;;98.53;69.18;;;332.90;1920.00;;;;;;4974646;28;20050;-61
2022/02/14 11:12:31;;;;;;;109.43;73.30;;;333.30;1894.40;;;;;;4974524;28;20077;-61
2022/02/14 11:14:59;;;;;;;112.65;80.40;;;333.70;1868.80;;;;;;4974364;28;20031;-61
2022/02/14 11:17:28;;;;;;;110.88;76.60;;;333.50;1843.20;;;;;;4974360;28;20031;-60
2022/02/14 11:19:59;;;;;;;106.93;79.22;;;333.40;1868.80;;;;;;4974091;28;20478;-62
2022/02/14 11:22:28;;;;;;;113.47;78.28;;;333.50;1868.80;;;;;;4974254;28;20026;-60
2022/02/14 11:25:08;;;;;;;110.22;79.65;;;333.50;1843.20;;;;;;4974077;28;20109;-62
2022/02/14 11:27:38;;;;;;;104.78;79.82;;;358.40;1843.20;;;;;;4974051;28;20058;-63
2022/02/14 11:30:09;;;;;;;131.60;89.07;;;333.70;1843.20;;;;;;4974115;28;20023;-61
2022/02/14 11:32:39;;;;;;;136.13;97.00;;;358.40;1868.80;;;;;;4973984;28;20042;-60
2022/02/14 11:35:09;;;;;;;123.07;85.65;;;358.40;1894.40;;;;;;4973906;28;20055;-61
2022/02/14 11:38:07;;;;;;;113.25;82.35;;;333.70;1894.40;;;;;;4973783;28;20474;-61
2022/02/14 11:40:41;;;;;;;108.85;79.28;;;358.40;1868.80;;;;;;4895559;29;20032;-62
2022/02/14 11:43:12;;;;;;;124.75;93.00;;;358.40;1894.40;;;;;;4895434;29;20377;-63
2022/02/14 11:45:40;;;;;;;138.38;103.78;;;333.70;1868.80;;;;;;4895342;29;20115;-66
2022/02/14 11:48:27;;;;;;;125.57;92.45;;;358.50;1868.80;;;;;;4895271;29;20076;-63
2022/02/14 11:51:13;;;;;;;182.65;131.98;;;358.70;1868.80;;;;;;4895424;29;20040;-60
2022/02/14 11:53:44;;;;;;;263.83;189.63;;;358.80;1843.20;;;;;;4895354;29;20032;-62
2022/02/14 11:56:18;;;;;;;242.55;177.98;;;359.00;1792.00;;;;;;4894777;29;20068;-61
2022/02/14 11:59:04;;;;;;;158.18;116.63;;;359.00;1792.00;;;;;;4894986;29;20487;-61
2022/02/14 12:01:32;;;;;;;119.38;88.07;;;359.00;1817.60;;;;;;4894983;29;20545;-64
2022/02/14 12:04:38;;;;;;;151.50;112.93;;;358.80;1843.20;;;;;;4894927;29;20048;-61